createdAt,value
2022-09-28T00:01:17.713Z,100.00
2022-09-28T00:03:47.707Z,100.00
2022-09-28T00:06:16.033Z,100.00
2022-09-28T00:08:42.837Z,100.00
2022-09-28T00:11:13.765Z,100.00
2022-09-28T00:13:41.634Z,100.00
2022-09-28T00:16:12.470Z,100.00
2022-09-28T00:18:39.253Z,100.00
2022-09-28T00:21:08.763Z,100.00
2022-09-28T00:23:56.424Z,100.00
2022-09-28T00:26:23.927Z,100.00
2022-09-28T00:28:55.138Z,100.00
2022-09-28T00:31:23.383Z,100.00
2022-09-28T00:33:51.465Z,100.00
2022-09-28T00:36:18.810Z,100.00
2022-09-28T00:38:46.419Z,100.00
2022-09-28T00:41:13.395Z,100.00
2022-09-28T00:43:40.346Z,100.00
2022-09-28T00:46:33.040Z,100.00
2022-09-28T00:49:11.174Z,100.00
2022-09-28T00:51:39.823Z,100.00
2022-09-28T00:54:09.238Z,100.00
2022-09-28T00:56:40.579Z,100.00
2022-09-28T00:59:09.499Z,100.00
2022-09-28T01:01:37.104Z,100.00
2022-09-28T01:04:05.033Z,100.00
2022-09-28T01:06:36.035Z,100.00
2022-09-28T01:09:06.503Z,100.00
2022-09-28T01:11:36.775Z,100.00
2022-09-28T01:14:09.089Z,100.00
2022-09-28T01:16:46.283Z,100.00
2022-09-28T01:19:49.100Z,100.00
2022-09-28T01:22:58.235Z,100.00
2022-09-28T01:25:41.159Z,100.00
2022-09-28T01:28:16.327Z,100.00
2022-09-28T01:30:50.351Z,100.00
2022-09-28T01:33:26.311Z,100.00
2022-09-28T01:35:57.210Z,100.00
2022-09-28T01:38:30.432Z,100.00
2022-09-28T01:40:59.912Z,100.00
2022-09-28T01:43:29.009Z,100.00
2022-09-28T01:46:16.541Z,100.00
2022-09-28T01:48:59.460Z,100.00
2022-09-28T01:51:35.600Z,100.00
2022-09-28T01:54:14.873Z,100.00
2022-09-28T01:56:57.095Z,100.00
2022-09-28T01:59:30.957Z,100.00
2022-09-28T02:02:09.943Z,100.00
2022-09-28T02:05:01.812Z,100.00
2022-09-28T02:07:45.249Z,100.00
2022-09-28T02:10:23.135Z,100.00
2022-09-28T02:13:01.586Z,100.00
2022-09-28T02:16:04.460Z,100.00
2022-09-28T02:18:31.709Z,100.00
2022-09-28T02:21:09.636Z,100.00
2022-09-28T02:23:39.708Z,100.00
2022-09-28T02:26:14.307Z,100.00
2022-09-28T02:28:41.148Z,100.00
2022-09-28T02:31:07.922Z,100.00
2022-09-28T02:33:38.433Z,100.00
2022-09-28T02:36:06.375Z,100.00
2022-09-28T02:38:38.023Z,100.00
2022-09-28T02:41:38.597Z,100.00
2022-09-28T02:44:37.940Z,100.00
2022-09-28T02:47:11.742Z,100.00
2022-09-28T02:49:47.430Z,100.00
2022-09-28T02:52:33.526Z,100.00
2022-09-28T02:55:10.974Z,100.00
2022-09-28T02:58:05.074Z,100.00
2022-09-28T03:00:38.690Z,100.00
2022-09-28T03:03:24.227Z,100.00
2022-09-28T03:06:03.483Z,100.00
2022-09-28T03:08:49.411Z,100.00
2022-09-28T03:11:23.145Z,100.00
2022-09-28T03:13:51.920Z,100.00
2022-09-28T03:16:21.086Z,100.00
2022-09-28T03:18:49.408Z,100.00
2022-09-28T03:21:16.692Z,100.00
2022-09-28T03:23:43.563Z,100.00
2022-09-28T03:26:12.676Z,100.00
2022-09-28T03:28:40.151Z,100.00
2022-09-28T03:31:09.678Z,100.00
2022-09-28T03:33:36.542Z,100.00
2022-09-28T03:36:03.537Z,100.00
2022-09-28T03:38:30.867Z,100.00
2022-09-28T03:40:59.821Z,100.00
2022-09-28T03:43:30.943Z,99.97
2022-09-28T03:46:01.289Z,100.00
2022-09-28T03:48:33.002Z,100.00
2022-09-28T03:51:09.252Z,100.00
2022-09-28T03:53:37.058Z,98.97
2022-09-28T03:56:15.681Z,98.41
2022-09-28T03:58:42.967Z,97.89
2022-09-28T04:01:17.020Z,97.10
2022-09-28T04:03:46.778Z,96.95
2022-09-28T04:06:14.226Z,97.07
2022-09-28T04:08:40.896Z,97.29
2022-09-28T04:11:08.637Z,97.42
2022-09-28T04:13:35.507Z,97.37
2022-09-28T04:16:02.404Z,97.55
2022-09-28T04:18:35.220Z,97.30
2022-09-28T04:21:25.267Z,97.28
2022-09-28T04:24:00.830Z,96.82
2022-09-28T04:26:28.414Z,96.50
2022-09-28T04:29:15.097Z,96.34
2022-09-28T04:31:52.427Z,95.80
2022-09-28T04:34:22.914Z,95.54
2022-09-28T04:36:50.096Z,95.05
2022-09-28T04:39:19.215Z,94.96
2022-09-28T04:41:51.852Z,94.22
2022-09-28T04:44:18.943Z,93.96
2022-09-28T04:46:47.286Z,93.90
2022-09-28T04:49:29.360Z,92.77
2022-09-28T04:52:13.537Z,93.30
2022-09-28T04:54:44.236Z,94.71
2022-09-28T04:57:11.440Z,93.96
2022-09-28T04:59:38.931Z,94.19
2022-09-28T05:02:05.706Z,94.92
2022-09-28T05:04:51.052Z,95.92
2022-09-28T05:07:46.019Z,95.72
2022-09-28T05:10:13.378Z,97.02
2022-09-28T05:12:40.506Z,96.31
2022-09-28T05:15:07.629Z,96.89
2022-09-28T05:17:34.317Z,96.41
2022-09-28T05:20:20.265Z,95.75
2022-09-28T05:22:47.030Z,95.64
2022-09-28T05:25:13.791Z,95.27
2022-09-28T05:27:56.821Z,95.43
2022-09-28T05:30:36.847Z,94.80
2022-09-28T05:33:27.454Z,93.98
2022-09-28T05:36:11.028Z,93.56
2022-09-28T05:38:38.229Z,93.59
2022-09-28T05:41:06.796Z,93.09
2022-09-28T05:43:33.864Z,93.05
2022-09-28T05:46:03.460Z,92.65
2022-09-28T05:48:30.527Z,92.49
2022-09-28T05:50:58.856Z,92.46
2022-09-28T05:53:26.589Z,92.05
2022-09-28T05:55:53.260Z,92.26
2022-09-28T05:58:20.023Z,92.05
2022-09-28T06:00:47.222Z,91.67
2022-09-28T06:03:14.685Z,91.54
2022-09-28T06:05:41.834Z,90.66
2022-09-28T06:08:12.882Z,90.78
2022-09-28T06:10:44.224Z,91.05
2022-09-28T06:13:14.642Z,90.60
2022-09-28T06:15:42.740Z,90.02
